sensor_id;sensor_type;location;lat;lon;timestamp;temperature;humidity
9772;DHT22;4925;52.588;13.370;2023-06-19T00:02:01;21.00;99.90
9772;DHT22;4925;52.588;13.370;2023-06-19T00:04:27;21.00;99.90
9772;DHT22;4925;52.588;13.370;2023-06-19T00:06:53;21.00;99.90
9772;DHT22;4925;52.588;13.370;2023-06-19T00:09:19;21.00;99.90
9772;DHT22;4925;52.588;13.370;2023-06-19T00:11:45;20.90;99.90
9772;DHT22;4925;52.588;13.370;2023-06-19T00:14:11;20.90;99.90
9772;DHT22;4925;52.588;13.370;2023-06-19T00:16:37;20.80;99.90
9772;DHT22;4925;52.588;13.370;2023-06-19T00:19:02;20.70;99.90
9772;DHT22;4925;52.588;13.370;2023-06-19T00:21:29;20.70;99.90
9772;DHT22;4925;52.588;13.370;2023-06-19T00:23:55;20.60;99.90
9772;DHT22;4925;52.588;13.370;2023-06-19T00:26:21;20.60;99.90
9772;DHT22;4925;52.588;13.370;2023-06-19T00:28:51;20.60;99.90
9772;DHT22;4925;52.588;13.370;2023-06-19T00:31:17;20.60;99.90
9772;DHT22;4925;52.588;13.370;2023-06-19T00:33:44;20.50;99.90
9772;DHT22;4925;52.588;13.370;2023-06-19T00:36:11;20.50;99.90
9772;DHT22;4925;52.588;13.370;2023-06-19T00:38:38;20.40;99.90
9772;DHT22;4925;52.588;13.370;2023-06-19T00:41:04;20.50;99.90
9772;DHT22;4925;52.588;13.370;2023-06-19T00:43:33;20.40;99.90
9772;DHT22;4925;52.588;13.370;2023-06-19T00:45:59;20.40;99.90
9772;DHT22;4925;52.588;13.370;2023-06-19T00:48:27;20.50;99.90
9772;DHT22;4925;52.588;13.370;2023-06-19T00:50:54;20.50;99.90
9772;DHT22;4925;52.588;13.370;2023-06-19T00:53:20;20.50;99.90
9772;DHT22;4925;52.588;13.370;2023-06-19T00:55:47;20.50;99.90
9772;DHT22;4925;52.588;13.370;2023-06-19T00:58:13;20.50;99.90
9772;DHT22;4925;52.588;13.370;2023-06-19T01:00:39;20.60;99.90
9772;DHT22;4925;52.588;13.370;2023-06-19T01:03:05;20.50;99.90
9772;DHT22;4925;52.588;13.370;2023-06-19T01:05:31;20.60;99.90
9772;DHT22;4925;52.588;13.370;2023-06-19T01:10:27;20.60;99.90
9772;DHT22;4925;52.588;13.370;2023-06-19T01:15:24;20.60;99.90
9772;DHT22;4925;52.588;13.370;2023-06-19T01:17:51;20.70;99.90
9772;DHT22;4925;52.588;13.370;2023-06-19T01:20:17;20.60;99.90
9772;DHT22;4925;52.588;13.370;2023-06-19T01:22:43;20.60;99.90
9772;DHT22;4925;52.588;13.370;2023-06-19T01:25:11;20.60;99.90
9772;DHT22;4925;52.588;13.370;2023-06-19T01:27:41;20.60;99.90
9772;DHT22;4925;52.588;13.370;2023-06-19T01:30:09;20.60;99.90
9772;DHT22;4925;52.588;13.370;2023-06-19T01:32:55;20.60;99.90
9772;DHT22;4925;52.588;13.370;2023-06-19T01:35:27;20.60;99.90
9772;DHT22;4925;52.588;13.370;2023-06-19T01:37:53;20.60;99.90
9772;DHT22;4925;52.588;13.370;2023-06-19T01:40:20;20.60;99.90
9772;DHT22;4925;52.588;13.370;2023-06-19T01:42:52;20.60;99.90
9772;DHT22;4925;52.588;13.370;2023-06-19T01:45:18;20.50;99.90
9772;DHT22;4925;52.588;13.370;2023-06-19T01:47:44;20.50;99.90
9772;DHT22;4925;52.588;13.370;2023-06-19T01:50:11;20.60;99.90
9772;DHT22;4925;52.588;13.370;2023-06-19T01:52:38;20.60;99.90
9772;DHT22;4925;52.588;13.370;2023-06-19T01:55:04;20.60;99.90
9772;DHT22;4925;52.588;13.370;2023-06-19T01:57:30;20.60;99.90
9772;DHT22;4925;52.588;13.370;2023-06-19T01:59:55;20.60;99.90
9772;DHT22;4925;52.588;13.370;2023-06-19T02:02:21;20.60;99.90
9772;DHT22;4925;52.588;13.370;2023-06-19T02:04:47;20.60;99.90
9772;DHT22;4925;52.588;13.370;2023-06-19T02:07:12;20.60;99.90
9772;DHT22;4925;52.588;13.370;2023-06-19T02:09:38;20.70;99.90
9772;DHT22;4925;52.588;13.370;2023-06-19T02:12:05;20.60;99.90
9772;DHT22;4925;52.588;13.370;2023-06-19T02:14:30;20.60;99.90
9772;DHT22;4925;52.588;13.370;2023-06-19T02:16:56;20.60;99.90
9772;DHT22;4925;52.588;13.370;2023-06-19T02:19:22;20.60;99.90
9772;DHT22;4925;52.588;13.370;2023-06-19T02:21:47;20.70;99.90
9772;DHT22;4925;52.588;13.370;2023-06-19T02:24:13;20.70;99.90
9772;DHT22;4925;52.588;13.370;2023-06-19T02:26:39;20.70;99.90
9772;DHT22;4925;52.588;13.370;2023-06-19T02:29:04;20.70;99.90
9772;DHT22;4925;52.588;13.370;2023-06-19T02:31:30;20.70;99.90
9772;DHT22;4925;52.588;13.370;2023-06-19T02:33:56;20.70;99.90
9772;DHT22;4925;52.588;13.370;2023-06-19T02:36:22;20.70;99.90
9772;DHT22;4925;52.588;13.370;2023-06-19T02:38:51;20.70;99.90
9772;DHT22;4925;52.588;13.370;2023-06-19T02:41:18;20.70;99.90
9772;DHT22;4925;52.588;13.370;2023-06-19T02:43:44;20.70;99.90
9772;DHT22;4925;52.588;13.370;2023-06-19T02:46:12;20.70;99.90
9772;DHT22;4925;52.588;13.370;2023-06-19T02:48:38;20.70;99.90
9772;DHT22;4925;52.588;13.370;2023-06-19T02:51:03;20.70;99.90
9772;DHT22;4925;52.588;13.370;2023-06-19T02:53:29;20.70;99.90
9772;DHT22;4925;52.588;13.370;2023-06-19T02:55:54;20.70;99.90
9772;DHT22;4925;52.588;13.370;2023-06-19T02:58:20;20.70;99.90
9772;DHT22;4925;52.588;13.370;2023-06-19T03:00:46;20.80;99.90
9772;DHT22;4925;52.588;13.370;2023-06-19T03:03:12;20.80;99.90
9772;DHT22;4925;52.588;13.370;2023-06-19T03:05:38;20.80;99.90
9772;DHT22;4925;52.588;13.370;2023-06-19T03:08:04;20.80;99.90
9772;DHT22;4925;52.588;13.370;2023-06-19T03:10:30;20.80;99.90
9772;DHT22;4925;52.588;13.370;2023-06-19T03:12:56;20.80;99.90
9772;DHT22;4925;52.588;13.370;2023-06-19T03:15:24;20.80;99.90
9772;DHT22;4925;52.588;13.370;2023-06-19T03:17:50;20.90;99.90
9772;DHT22;4925;52.588;13.370;2023-06-19T03:20:16;20.90;99.90
9772;DHT22;4925;52.588;13.370;2023-06-19T03:22:41;21.00;99.90
9772;DHT22;4925;52.588;13.370;2023-06-19T03:25:08;21.00;99.90
9772;DHT22;4925;52.588;13.370;2023-06-19T03:27:34;21.10;99.90
9772;DHT22;4925;52.588;13.370;2023-06-19T03:30:00;21.10;99.90
9772;DHT22;4925;52.588;13.370;2023-06-19T03:32:26;21.10;99.90
9772;DHT22;4925;52.588;13.370;2023-06-19T03:34:51;21.10;99.90
9772;DHT22;4925;52.588;13.370;2023-06-19T03:37:17;21.20;99.90
9772;DHT22;4925;52.588;13.370;2023-06-19T03:39:43;21.20;99.90
9772;DHT22;4925;52.588;13.370;2023-06-19T03:42:08;21.20;99.90
9772;DHT22;4925;52.588;13.370;2023-06-19T03:44:34;21.30;99.90
9772;DHT22;4925;52.588;13.370;2023-06-19T03:47:00;21.40;99.90
9772;DHT22;4925;52.588;13.370;2023-06-19T03:49:25;21.40;99.90
9772;DHT22;4925;52.588;13.370;2023-06-19T03:51:52;21.40;99.90
9772;DHT22;4925;52.588;13.370;2023-06-19T03:54:20;21.50;99.90
9772;DHT22;4925;52.588;13.370;2023-06-19T03:56:45;21.50;99.90
9772;DHT22;4925;52.588;13.370;2023-06-19T03:59:11;21.60;99.90
9772;DHT22;4925;52.588;13.370;2023-06-19T04:01:36;21.60;99.90
9772;DHT22;4925;52.588;13.370;2023-06-19T04:04:02;21.60;99.90
9772;DHT22;4925;52.588;13.370;2023-06-19T04:06:28;21.60;99.90
9772;DHT22;4925;52.588;13.370;2023-06-19T04:08:53;21.60;99.90
9772;DHT22;4925;52.588;13.370;2023-06-19T04:11:19;21.60;99.90
9772;DHT22;4925;52.588;13.370;2023-06-19T04:13:46;21.60;99.90
9772;DHT22;4925;52.588;13.370;2023-06-19T04:16:12;21.60;99.90
9772;DHT22;4925;52.588;13.370;2023-06-19T04:18:39;21.60;99.90
9772;DHT22;4925;52.588;13.370;2023-06-19T04:21:04;21.70;99.90
9772;DHT22;4925;52.588;13.370;2023-06-19T04:23:30;21.70;99.90
9772;DHT22;4925;52.588;13.370;2023-06-19T04:25:56;21.70;99.90
9772;DHT22;4925;52.588;13.370;2023-06-19T04:28:21;21.80;99.90
9772;DHT22;4925;52.588;13.370;2023-06-19T04:30:47;21.90;99.90
9772;DHT22;4925;52.588;13.370;2023-06-19T04:33:13;22.00;99.90
9772;DHT22;4925;52.588;13.370;2023-06-19T04:35:38;22.10;99.90
9772;DHT22;4925;52.588;13.370;2023-06-19T04:38:07;22.20;99.90
9772;DHT22;4925;52.588;13.370;2023-06-19T04:40:33;22.20;99.90
9772;DHT22;4925;52.588;13.370;2023-06-19T04:43:00;22.10;99.90
9772;DHT22;4925;52.588;13.370;2023-06-19T04:45:28;22.00;99.90
9772;DHT22;4925;52.588;13.370;2023-06-19T04:47:53;22.20;99.90
9772;DHT22;4925;52.588;13.370;2023-06-19T04:50:20;22.30;99.90
9772;DHT22;4925;52.588;13.370;2023-06-19T04:52:46;22.40;99.90
9772;DHT22;4925;52.588;13.370;2023-06-19T04:55:12;22.60;99.90
9772;DHT22;4925;52.588;13.370;2023-06-19T04:57:38;22.70;99.90
9772;DHT22;4925;52.588;13.370;2023-06-19T05:00:05;22.70;99.90
9772;DHT22;4925;52.588;13.370;2023-06-19T05:02:32;22.70;99.90
9772;DHT22;4925;52.588;13.370;2023-06-19T05:04:59;22.70;99.90
9772;DHT22;4925;52.588;13.370;2023-06-19T05:07:30;22.60;99.90
9772;DHT22;4925;52.588;13.370;2023-06-19T05:09:56;22.60;99.90
9772;DHT22;4925;52.588;13.370;2023-06-19T05:12:22;22.60;99.90
9772;DHT22;4925;52.588;13.370;2023-06-19T05:14:48;22.60;99.90
9772;DHT22;4925;52.588;13.370;2023-06-19T05:17:13;22.60;99.90
9772;DHT22;4925;52.588;13.370;2023-06-19T05:19:39;22.60;99.90
9772;DHT22;4925;52.588;13.370;2023-06-19T05:22:05;22.60;99.90
9772;DHT22;4925;52.588;13.370;2023-06-19T05:24:32;22.60;99.90
9772;DHT22;4925;52.588;13.370;2023-06-19T05:26:57;22.60;99.90
9772;DHT22;4925;52.588;13.370;2023-06-19T05:29:23;22.60;99.90
9772;DHT22;4925;52.588;13.370;2023-06-19T05:31:49;22.60;99.90
9772;DHT22;4925;52.588;13.370;2023-06-19T05:34:14;22.50;99.90
9772;DHT22;4925;52.588;13.370;2023-06-19T05:36:40;22.60;99.90
9772;DHT22;4925;52.588;13.370;2023-06-19T05:39:06;22.60;99.90
9772;DHT22;4925;52.588;13.370;2023-06-19T05:41:31;22.70;99.90
9772;DHT22;4925;52.588;13.370;2023-06-19T05:43:58;22.70;99.90
9772;DHT22;4925;52.588;13.370;2023-06-19T05:46:23;22.70;99.90
9772;DHT22;4925;52.588;13.370;2023-06-19T05:48:49;22.80;99.90
9772;DHT22;4925;52.588;13.370;2023-06-19T05:51:15;22.80;99.90
9772;DHT22;4925;52.588;13.370;2023-06-19T05:53:40;22.80;99.90
9772;DHT22;4925;52.588;13.370;2023-06-19T05:56:06;22.90;99.90
9772;DHT22;4925;52.588;13.370;2023-06-19T05:58:32;22.90;99.90
9772;DHT22;4925;52.588;13.370;2023-06-19T06:00:58;22.90;99.90
9772;DHT22;4925;52.588;13.370;2023-06-19T06:03:24;23.00;99.90
9772;DHT22;4925;52.588;13.370;2023-06-19T06:05:51;23.10;99.90
9772;DHT22;4925;52.588;13.370;2023-06-19T06:08:16;23.10;99.90
9772;DHT22;4925;52.588;13.370;2023-06-19T06:10:42;23.20;99.90
9772;DHT22;4925;52.588;13.370;2023-06-19T06:13:08;23.20;99.90
9772;DHT22;4925;52.588;13.370;2023-06-19T06:15:33;23.20;99.90
9772;DHT22;4925;52.588;13.370;2023-06-19T06:17:59;23.10;99.90
9772;DHT22;4925;52.588;13.370;2023-06-19T06:20:25;23.20;99.90
9772;DHT22;4925;52.588;13.370;2023-06-19T06:22:52;23.10;99.90
9772;DHT22;4925;52.588;13.370;2023-06-19T06:25:18;23.10;99.90
9772;DHT22;4925;52.588;13.370;2023-06-19T06:27:44;23.10;99.90
9772;DHT22;4925;52.588;13.370;2023-06-19T06:30:10;23.10;99.90
9772;DHT22;4925;52.588;13.370;2023-06-19T06:32:37;23.10;99.90
9772;DHT22;4925;52.588;13.370;2023-06-19T06:35:03;23.00;99.90
9772;DHT22;4925;52.588;13.370;2023-06-19T06:37:29;23.00;99.90
9772;DHT22;4925;52.588;13.370;2023-06-19T06:39:55;23.20;99.90
9772;DHT22;4925;52.588;13.370;2023-06-19T06:42:21;23.20;99.90
9772;DHT22;4925;52.588;13.370;2023-06-19T06:44:46;23.20;99.90
9772;DHT22;4925;52.588;13.370;2023-06-19T06:47:12;23.20;99.90
9772;DHT22;4925;52.588;13.370;2023-06-19T06:49:38;23.30;99.90
9772;DHT22;4925;52.588;13.370;2023-06-19T06:52:04;23.30;99.90
9772;DHT22;4925;52.588;13.370;2023-06-19T06:54:30;23.50;99.90
9772;DHT22;4925;52.588;13.370;2023-06-19T06:56:56;23.60;99.90
9772;DHT22;4925;52.588;13.370;2023-06-19T06:59:24;23.70;99.90
9772;DHT22;4925;52.588;13.370;2023-06-19T07:01:51;23.80;99.90
9772;DHT22;4925;52.588;13.370;2023-06-19T07:04:16;23.90;99.90
9772;DHT22;4925;52.588;13.370;2023-06-19T07:06:42;24.00;99.90
9772;DHT22;4925;52.588;13.370;2023-06-19T07:09:08;24.20;99.90
9772;DHT22;4925;52.588;13.370;2023-06-19T07:11:34;24.30;99.90
9772;DHT22;4925;52.588;13.370;2023-06-19T07:13:59;24.40;99.90
9772;DHT22;4925;52.588;13.370;2023-06-19T07:16:25;24.50;99.90
9772;DHT22;4925;52.588;13.370;2023-06-19T07:18:51;24.60;99.90
9772;DHT22;4925;52.588;13.370;2023-06-19T07:21:16;24.70;99.90
9772;DHT22;4925;52.588;13.370;2023-06-19T07:23:43;24.60;99.90
9772;DHT22;4925;52.588;13.370;2023-06-19T07:26:11;24.60;99.90
9772;DHT22;4925;52.588;13.370;2023-06-19T07:28:36;24.60;99.90
9772;DHT22;4925;52.588;13.370;2023-06-19T07:31:03;24.60;99.90
9772;DHT22;4925;52.588;13.370;2023-06-19T07:33:29;24.60;99.90
9772;DHT22;4925;52.588;13.370;2023-06-19T07:35:57;24.80;99.90
9772;DHT22;4925;52.588;13.370;2023-06-19T07:38:23;24.90;99.90
9772;DHT22;4925;52.588;13.370;2023-06-19T07:40:49;25.00;99.90
9772;DHT22;4925;52.588;13.370;2023-06-19T07:43:16;25.00;99.90
9772;DHT22;4925;52.588;13.370;2023-06-19T07:45:42;25.10;99.90
9772;DHT22;4925;52.588;13.370;2023-06-19T07:48:08;25.30;99.90
9772;DHT22;4925;52.588;13.370;2023-06-19T07:50:34;25.40;99.90
9772;DHT22;4925;52.588;13.370;2023-06-19T07:52:59;25.40;99.90
9772;DHT22;4925;52.588;13.370;2023-06-19T07:55:25;25.40;99.90
9772;DHT22;4925;52.588;13.370;2023-06-19T07:57:51;25.40;99.90
9772;DHT22;4925;52.588;13.370;2023-06-19T08:00:18;25.50;99.90
9772;DHT22;4925;52.588;13.370;2023-06-19T08:02:43;25.60;99.90
9772;DHT22;4925;52.588;13.370;2023-06-19T08:05:10;25.60;99.90
9772;DHT22;4925;52.588;13.370;2023-06-19T08:07:36;25.50;99.90
9772;DHT22;4925;52.588;13.370;2023-06-19T08:10:02;25.50;99.90
9772;DHT22;4925;52.588;13.370;2023-06-19T08:12:31;25.50;99.90
9772;DHT22;4925;52.588;13.370;2023-06-19T08:14:57;25.60;99.90
9772;DHT22;4925;52.588;13.370;2023-06-19T08:17:22;25.80;99.90
9772;DHT22;4925;52.588;13.370;2023-06-19T08:19:48;25.90;99.90
9772;DHT22;4925;52.588;13.370;2023-06-19T08:22:14;26.00;99.90
9772;DHT22;4925;52.588;13.370;2023-06-19T08:24:39;26.00;99.90
9772;DHT22;4925;52.588;13.370;2023-06-19T08:27:06;25.90;99.90
9772;DHT22;4925;52.588;13.370;2023-06-19T08:29:32;25.90;99.90
9772;DHT22;4925;52.588;13.370;2023-06-19T08:31:58;25.90;99.90
9772;DHT22;4925;52.588;13.370;2023-06-19T08:34:23;25.90;99.90
9772;DHT22;4925;52.588;13.370;2023-06-19T08:36:49;25.90;99.90
9772;DHT22;4925;52.588;13.370;2023-06-19T08:39:15;25.90;99.90
9772;DHT22;4925;52.588;13.370;2023-06-19T08:41:42;25.90;99.90
9772;DHT22;4925;52.588;13.370;2023-06-19T08:44:08;26.00;99.90
9772;DHT22;4925;52.588;13.370;2023-06-19T08:46:35;26.00;99.90
9772;DHT22;4925;52.588;13.370;2023-06-19T08:49:03;26.00;99.90
9772;DHT22;4925;52.588;13.370;2023-06-19T08:51:30;26.10;99.90
9772;DHT22;4925;52.588;13.370;2023-06-19T08:54:00;26.20;99.90
9772;DHT22;4925;52.588;13.370;2023-06-19T08:56:26;26.20;99.90
9772;DHT22;4925;52.588;13.370;2023-06-19T08:58:53;26.20;99.90
9772;DHT22;4925;52.588;13.370;2023-06-19T09:01:19;26.20;99.90
9772;DHT22;4925;52.588;13.370;2023-06-19T09:03:48;26.20;99.90
9772;DHT22;4925;52.588;13.370;2023-06-19T09:06:18;26.10;99.90
9772;DHT22;4925;52.588;13.370;2023-06-19T09:08:43;26.00;99.90
9772;DHT22;4925;52.588;13.370;2023-06-19T09:11:10;26.00;99.90
9772;DHT22;4925;52.588;13.370;2023-06-19T09:13:36;25.90;99.90
9772;DHT22;4925;52.588;13.370;2023-06-19T09:16:06;26.00;99.90
9772;DHT22;4925;52.588;13.370;2023-06-19T09:18:46;25.90;99.90
9772;DHT22;4925;52.588;13.370;2023-06-19T09:21:20;25.90;99.90
9772;DHT22;4925;52.588;13.370;2023-06-19T09:23:50;25.90;99.90
9772;DHT22;4925;52.588;13.370;2023-06-19T09:26:19;26.00;99.90
9772;DHT22;4925;52.588;13.370;2023-06-19T09:28:46;26.00;99.90
9772;DHT22;4925;52.588;13.370;2023-06-19T09:31:12;26.00;99.90
9772;DHT22;4925;52.588;13.370;2023-06-19T09:33:40;26.10;99.90
9772;DHT22;4925;52.588;13.370;2023-06-19T09:36:06;26.20;99.90
9772;DHT22;4925;52.588;13.370;2023-06-19T09:38:34;26.20;99.90
9772;DHT22;4925;52.588;13.370;2023-06-19T09:41:02;26.20;99.90
9772;DHT22;4925;52.588;13.370;2023-06-19T09:43:44;26.30;99.90
9772;DHT22;4925;52.588;13.370;2023-06-19T09:46:12;26.40;99.90
9772;DHT22;4925;52.588;13.370;2023-06-19T09:48:43;26.50;99.90
9772;DHT22;4925;52.588;13.370;2023-06-19T09:51:19;26.60;99.90
9772;DHT22;4925;52.588;13.370;2023-06-19T09:53:45;26.70;99.90
9772;DHT22;4925;52.588;13.370;2023-06-19T09:56:15;26.70;99.90
9772;DHT22;4925;52.588;13.370;2023-06-19T09:58:43;26.80;99.90
9772;DHT22;4925;52.588;13.370;2023-06-19T10:01:09;27.00;99.90
9772;DHT22;4925;52.588;13.370;2023-06-19T10:03:36;27.20;99.90
9772;DHT22;4925;52.588;13.370;2023-06-19T10:06:03;27.40;99.90
9772;DHT22;4925;52.588;13.370;2023-06-19T10:08:40;27.50;99.90
9772;DHT22;4925;52.588;13.370;2023-06-19T10:11:06;27.60;99.90
9772;DHT22;4925;52.588;13.370;2023-06-19T10:13:38;27.70;99.90
9772;DHT22;4925;52.588;13.370;2023-06-19T10:16:05;27.70;99.90
9772;DHT22;4925;52.588;13.370;2023-06-19T10:18:45;27.70;99.90
9772;DHT22;4925;52.588;13.370;2023-06-19T10:21:21;27.70;99.90
9772;DHT22;4925;52.588;13.370;2023-06-19T10:23:55;27.80;99.90
9772;DHT22;4925;52.588;13.370;2023-06-19T10:26:32;27.80;99.90
9772;DHT22;4925;52.588;13.370;2023-06-19T10:28:58;27.90;99.90
9772;DHT22;4925;52.588;13.370;2023-06-19T10:31:24;28.00;99.90
9772;DHT22;4925;52.588;13.370;2023-06-19T10:33:50;28.10;99.90
9772;DHT22;4925;52.588;13.370;2023-06-19T10:36:23;28.00;99.20
9772;DHT22;4925;52.588;13.370;2023-06-19T10:38:50;28.20;99.30
9772;DHT22;4925;52.588;13.370;2023-06-19T10:41:20;28.40;98.20
9772;DHT22;4925;52.588;13.370;2023-06-19T10:46:24;28.60;96.30
9772;DHT22;4925;52.588;13.370;2023-06-19T10:48:51;28.70;95.90
9772;DHT22;4925;52.588;13.370;2023-06-19T10:51:20;28.90;95.90
9772;DHT22;4925;52.588;13.370;2023-06-19T10:53:46;28.90;96.00
9772;DHT22;4925;52.588;13.370;2023-06-19T10:56:11;29.00;95.80
9772;DHT22;4925;52.588;13.370;2023-06-19T10:58:37;28.90;94.20
9772;DHT22;4925;52.588;13.370;2023-06-19T11:01:03;28.70;93.40
9772;DHT22;4925;52.588;13.370;2023-06-19T11:03:29;28.70;93.80
9772;DHT22;4925;52.588;13.370;2023-06-19T11:05:57;28.70;94.10
9772;DHT22;4925;52.588;13.370;2023-06-19T11:08:23;28.70;94.40
9772;DHT22;4925;52.588;13.370;2023-06-19T11:10:50;28.70;94.50
9772;DHT22;4925;52.588;13.370;2023-06-19T11:13:17;28.60;94.40
9772;DHT22;4925;52.588;13.370;2023-06-19T11:15:44;28.70;95.30
9772;DHT22;4925;52.588;13.370;2023-06-19T11:18:10;28.70;95.40
9772;DHT22;4925;52.588;13.370;2023-06-19T11:20:51;28.70;95.30
9772;DHT22;4925;52.588;13.370;2023-06-19T11:23:25;28.90;94.30
9772;DHT22;4925;52.588;13.370;2023-06-19T11:25:52;28.80;92.10
9772;DHT22;4925;52.588;13.370;2023-06-19T11:28:18;28.90;90.70
9772;DHT22;4925;52.588;13.370;2023-06-19T11:30:48;29.20;90.70
9772;DHT22;4925;52.588;13.370;2023-06-19T11:33:19;29.30;89.30
9772;DHT22;4925;52.588;13.370;2023-06-19T11:36:00;29.50;88.30
9772;DHT22;4925;52.588;13.370;2023-06-19T11:38:27;29.70;87.30
9772;DHT22;4925;52.588;13.370;2023-06-19T11:40:54;29.90;87.60
9772;DHT22;4925;52.588;13.370;2023-06-19T11:43:30;29.90;86.90
9772;DHT22;4925;52.588;13.370;2023-06-19T11:46:04;29.90;86.60
9772;DHT22;4925;52.588;13.370;2023-06-19T11:48:30;30.10;86.10
9772;DHT22;4925;52.588;13.370;2023-06-19T11:50:56;29.90;85.30
9772;DHT22;4925;52.588;13.370;2023-06-19T11:53:23;30.20;85.40
9772;DHT22;4925;52.588;13.370;2023-06-19T11:55:50;30.30;85.10
9772;DHT22;4925;52.588;13.370;2023-06-19T11:58:16;30.10;84.90
9772;DHT22;4925;52.588;13.370;2023-06-19T12:00:42;30.50;85.00
9772;DHT22;4925;52.588;13.370;2023-06-19T12:03:08;30.60;84.10
9772;DHT22;4925;52.588;13.370;2023-06-19T12:05:35;30.70;82.90
9772;DHT22;4925;52.588;13.370;2023-06-19T12:08:01;30.80;82.30
9772;DHT22;4925;52.588;13.370;2023-06-19T12:10:28;31.10;81.50
9772;DHT22;4925;52.588;13.370;2023-06-19T12:12:54;31.20;79.50
9772;DHT22;4925;52.588;13.370;2023-06-19T12:15:19;30.70;77.70
9772;DHT22;4925;52.588;13.370;2023-06-19T12:17:46;30.40;77.70
9772;DHT22;4925;52.588;13.370;2023-06-19T12:20:12;30.00;79.10
9772;DHT22;4925;52.588;13.370;2023-06-19T12:22:39;29.50;79.10
9772;DHT22;4925;52.588;13.370;2023-06-19T12:25:05;29.30;81.20
9772;DHT22;4925;52.588;13.370;2023-06-19T12:27:31;29.70;81.60
9772;DHT22;4925;52.588;13.370;2023-06-19T12:29:56;29.60;81.60
9772;DHT22;4925;52.588;13.370;2023-06-19T12:32:22;30.10;81.30
9772;DHT22;4925;52.588;13.370;2023-06-19T12:34:48;30.10;80.40
9772;DHT22;4925;52.588;13.370;2023-06-19T12:37:17;30.50;80.60
9772;DHT22;4925;52.588;13.370;2023-06-19T12:39:44;31.10;78.70
9772;DHT22;4925;52.588;13.370;2023-06-19T12:42:10;31.70;76.60
9772;DHT22;4925;52.588;13.370;2023-06-19T12:44:42;32.00;74.00
9772;DHT22;4925;52.588;13.370;2023-06-19T12:47:10;32.40;73.20
9772;DHT22;4925;52.588;13.370;2023-06-19T12:49:35;32.80;72.00
9772;DHT22;4925;52.588;13.370;2023-06-19T12:52:01;32.70;67.50
9772;DHT22;4925;52.588;13.370;2023-06-19T12:54:27;32.80;67.40
9772;DHT22;4925;52.588;13.370;2023-06-19T12:56:53;33.10;67.20
9772;DHT22;4925;52.588;13.370;2023-06-19T12:59:19;33.20;62.80
9772;DHT22;4925;52.588;13.370;2023-06-19T13:01:45;32.20;57.60
9772;DHT22;4925;52.588;13.370;2023-06-19T13:04:12;31.80;60.00
9772;DHT22;4925;52.588;13.370;2023-06-19T13:06:38;31.80;60.60
9772;DHT22;4925;52.588;13.370;2023-06-19T13:09:04;31.60;60.10
9772;DHT22;4925;52.588;13.370;2023-06-19T13:11:31;31.40;61.60
9772;DHT22;4925;52.588;13.370;2023-06-19T13:13:56;31.00;61.00
9772;DHT22;4925;52.588;13.370;2023-06-19T13:16:22;31.10;60.10
9772;DHT22;4925;52.588;13.370;2023-06-19T13:18:51;31.00;58.50
9772;DHT22;4925;52.588;13.370;2023-06-19T13:21:17;31.30;60.20
9772;DHT22;4925;52.588;13.370;2023-06-19T13:23:43;31.60;60.30
9772;DHT22;4925;52.588;13.370;2023-06-19T13:26:09;31.30;59.60
9772;DHT22;4925;52.588;13.370;2023-06-19T13:28:35;31.20;60.00
9772;DHT22;4925;52.588;13.370;2023-06-19T13:31:01;31.10;59.50
9772;DHT22;4925;52.588;13.370;2023-06-19T13:33:26;31.00;59.30
9772;DHT22;4925;52.588;13.370;2023-06-19T13:35:52;31.00;61.60
9772;DHT22;4925;52.588;13.370;2023-06-19T13:38:18;31.40;61.20
9772;DHT22;4925;52.588;13.370;2023-06-19T13:40:44;31.40;59.90
9772;DHT22;4925;52.588;13.370;2023-06-19T13:43:09;31.60;60.10
9772;DHT22;4925;52.588;13.370;2023-06-19T13:45:35;31.70;61.20
9772;DHT22;4925;52.588;13.370;2023-06-19T13:48:01;31.60;61.00
9772;DHT22;4925;52.588;13.370;2023-06-19T13:50:27;31.30;62.40
9772;DHT22;4925;52.588;13.370;2023-06-19T13:52:53;31.30;61.80
9772;DHT22;4925;52.588;13.370;2023-06-19T13:55:20;31.40;62.40
9772;DHT22;4925;52.588;13.370;2023-06-19T13:57:45;31.40;59.50
9772;DHT22;4925;52.588;13.370;2023-06-19T14:00:12;31.70;59.30
9772;DHT22;4925;52.588;13.370;2023-06-19T14:02:38;31.60;58.50
9772;DHT22;4925;52.588;13.370;2023-06-19T14:05:08;31.40;58.70
9772;DHT22;4925;52.588;13.370;2023-06-19T14:07:35;31.60;59.30
9772;DHT22;4925;52.588;13.370;2023-06-19T14:10:02;31.80;58.70
9772;DHT22;4925;52.588;13.370;2023-06-19T14:12:28;31.20;57.00
9772;DHT22;4925;52.588;13.370;2023-06-19T14:14:54;31.00;58.90
9772;DHT22;4925;52.588;13.370;2023-06-19T14:17:21;31.10;60.40
9772;DHT22;4925;52.588;13.370;2023-06-19T14:19:46;30.80;60.10
9772;DHT22;4925;52.588;13.370;2023-06-19T14:22:12;30.90;60.60
9772;DHT22;4925;52.588;13.370;2023-06-19T14:24:38;31.10;61.10
9772;DHT22;4925;52.588;13.370;2023-06-19T14:27:04;30.80;59.30
9772;DHT22;4925;52.588;13.370;2023-06-19T14:29:29;30.70;60.00
9772;DHT22;4925;52.588;13.370;2023-06-19T14:31:55;30.70;60.90
9772;DHT22;4925;52.588;13.370;2023-06-19T14:34:21;31.00;61.00
9772;DHT22;4925;52.588;13.370;2023-06-19T14:36:47;31.10;61.70
9772;DHT22;4925;52.588;13.370;2023-06-19T14:39:12;30.90;60.80
9772;DHT22;4925;52.588;13.370;2023-06-19T14:41:38;30.90;61.60
9772;DHT22;4925;52.588;13.370;2023-06-19T14:44:05;31.00;61.20
9772;DHT22;4925;52.588;13.370;2023-06-19T14:46:31;30.70;61.30
9772;DHT22;4925;52.588;13.370;2023-06-19T14:48:58;30.80;63.30
9772;DHT22;4925;52.588;13.370;2023-06-19T14:51:25;31.00;64.00
9772;DHT22;4925;52.588;13.370;2023-06-19T14:53:51;31.10;63.30
9772;DHT22;4925;52.588;13.370;2023-06-19T14:56:16;30.90;62.60
9772;DHT22;4925;52.588;13.370;2023-06-19T14:58:42;30.70;62.60
9772;DHT22;4925;52.588;13.370;2023-06-19T15:01:08;30.70;62.90
9772;DHT22;4925;52.588;13.370;2023-06-19T15:03:34;30.50;64.20
9772;DHT22;4925;52.588;13.370;2023-06-19T15:06:00;30.60;64.00
9772;DHT22;4925;52.588;13.370;2023-06-19T15:08:26;30.80;64.70
9772;DHT22;4925;52.588;13.370;2023-06-19T15:10:51;31.00;64.50
9772;DHT22;4925;52.588;13.370;2023-06-19T15:13:17;31.00;63.00
9772;DHT22;4925;52.588;13.370;2023-06-19T15:15:44;31.30;62.90
9772;DHT22;4925;52.588;13.370;2023-06-19T15:18:13;31.30;61.10
9772;DHT22;4925;52.588;13.370;2023-06-19T15:20:39;31.40;61.00
9772;DHT22;4925;52.588;13.370;2023-06-19T15:23:10;31.50;61.30
9772;DHT22;4925;52.588;13.370;2023-06-19T15:25:36;31.70;62.00
9772;DHT22;4925;52.588;13.370;2023-06-19T15:28:01;31.90;61.70
9772;DHT22;4925;52.588;13.370;2023-06-19T15:30:27;31.90;62.40
9772;DHT22;4925;52.588;13.370;2023-06-19T15:32:53;31.60;59.80
9772;DHT22;4925;52.588;13.370;2023-06-19T15:35:21;31.60;59.70
9772;DHT22;4925;52.588;13.370;2023-06-19T15:37:47;31.30;60.70
9772;DHT22;4925;52.588;13.370;2023-06-19T15:40:12;31.20;61.20
9772;DHT22;4925;52.588;13.370;2023-06-19T15:42:38;31.10;60.00
9772;DHT22;4925;52.588;13.370;2023-06-19T15:45:04;31.20;59.70
9772;DHT22;4925;52.588;13.370;2023-06-19T15:47:30;31.30;60.00
9772;DHT22;4925;52.588;13.370;2023-06-19T15:49:58;31.40;61.00